« Back
NWS Peachtree City, Ga » Text Product » AHN Terminal Aerodrome Forecast


Printer-friendly Version
Current Version              Previous Versions:   1  2  3  4  5  6  7  8  9  

Terminal Aerodrome Forecast

535
FTUS42 KFFC 290520
TAFAHN
TAF
KAHN 290520Z 2906/3006 26003KT P6SM FEW070 SCT250
     FM291100 25003KT P6SM SCT015
     FM291500 25006KT P6SM SCT035
     FM291800 24009KT P6SM SCT050 PROB30 2920/2923 6SM -TSRA
      BKN035CB
     FM300100 26004KT P6SM SCT070=

USA.gov is the U.S. government's official web portal to all federal, state and local government web resources and services.